createdAt,value
2018-09-11T00:00:14.444Z,84.40
2018-09-11T00:02:43.619Z,84.80
2018-09-11T00:05:12.625Z,84.60
2018-09-11T00:07:41.623Z,85.30
2018-09-11T00:10:10.681Z,85.30
2018-09-11T00:12:39.803Z,85.30
2018-09-11T00:15:08.865Z,85.00
2018-09-11T00:17:37.991Z,84.90
2018-09-11T00:20:07.097Z,85.20
2018-09-11T00:22:36.137Z,85.30
2018-09-11T00:25:06.199Z,85.50
2018-09-11T00:27:35.257Z,85.90
2018-09-11T00:30:04.939Z,86.40
2018-09-11T00:32:34.240Z,86.70
2018-09-11T00:35:03.277Z,86.50
2018-09-11T00:37:32.273Z,86.70
2018-09-11T00:40:01.481Z,86.80
2018-09-11T00:42:30.519Z,87.10
2018-09-11T00:44:59.513Z,87.20
2018-09-11T00:47:29.033Z,87.00
2018-09-11T00:49:58.161Z,87.30
2018-09-11T00:52:27.390Z,87.30
2018-09-11T00:54:56.413Z,87.20
2018-09-11T00:57:25.501Z,87.20
2018-09-11T00:59:54.544Z,87.60
2018-09-11T01:02:23.557Z,87.80
2018-09-11T01:04:52.585Z,87.90
2018-09-11T01:07:21.769Z,88.10
2018-09-11T01:09:50.764Z,88.20
2018-09-11T01:12:19.830Z,88.30
2018-09-11T01:14:48.893Z,88.30
2018-09-11T01:17:17.932Z,88.30
2018-09-11T01:19:47.036Z,88.40
2018-09-11T01:22:16.131Z,89.20
2018-09-11T01:24:45.147Z,88.70
2018-09-11T01:27:14.549Z,88.80
2018-09-11T01:29:43.585Z,89.10
2018-09-11T01:32:12.784Z,88.90
2018-09-11T01:34:41.808Z,89.20
2018-09-11T01:37:11.293Z,89.30
2018-09-11T01:39:40.596Z,89.60
2018-09-11T01:42:09.642Z,90.30
2018-09-11T01:44:38.672Z,90.00
2018-09-11T01:47:07.808Z,90.20
2018-09-11T01:49:36.953Z,90.20
2018-09-11T01:52:06.151Z,90.10
2018-09-11T01:54:35.152Z,90.00
2018-09-11T01:57:04.180Z,89.80
2018-09-11T01:59:33.197Z,90.00
2018-09-11T02:02:02.188Z,89.60
2018-09-11T02:04:31.275Z,89.30
2018-09-11T02:07:00.289Z,89.70
2018-09-11T02:09:29.375Z,88.30
2018-09-11T02:11:58.404Z,88.50
2018-09-11T02:14:27.405Z,88.20
2018-09-11T02:16:56.568Z,88.60
2018-09-11T02:19:25.552Z,89.10
2018-09-11T02:21:54.780Z,89.10
2018-09-11T02:24:23.791Z,89.40
2018-09-11T02:26:53.080Z,89.60
2018-09-11T02:29:22.230Z,89.80
2018-09-11T02:31:51.209Z,89.80
2018-09-11T02:34:20.250Z,90.00
2018-09-11T02:36:49.272Z,89.90
2018-09-11T02:39:18.282Z,89.80
2018-09-11T02:41:47.350Z,89.70
2018-09-11T02:44:16.352Z,89.20
2018-09-11T02:46:45.376Z,89.60
2018-09-11T02:49:14.381Z,89.70
2018-09-11T02:51:43.461Z,89.50
2018-09-11T02:54:12.449Z,89.40
2018-09-11T02:56:41.496Z,89.40
2018-09-11T02:59:10.624Z,89.80
2018-09-11T03:01:39.713Z,90.00
2018-09-11T03:04:09.002Z,90.10
2018-09-11T03:06:38.039Z,90.00
2018-09-11T03:09:07.218Z,90.00
2018-09-11T03:11:36.362Z,90.00
2018-09-11T03:14:05.448Z,90.00
2018-09-11T03:16:34.480Z,89.80
2018-09-11T03:19:03.545Z,90.00
2018-09-11T03:21:32.555Z,90.10
2018-09-11T03:24:01.728Z,90.10
2018-09-11T03:26:30.720Z,90.10
2018-09-11T03:28:59.777Z,90.30
2018-09-11T03:31:28.796Z,90.30
2018-09-11T03:33:57.785Z,90.30
2018-09-11T03:36:26.838Z,90.30
2018-09-11T03:38:55.869Z,90.40
2018-09-11T03:41:24.908Z,90.40
2018-09-11T03:43:53.917Z,90.40
2018-09-11T03:46:22.964Z,90.50
2018-09-11T03:48:52.553Z,90.50
2018-09-11T03:51:21.740Z,90.90
2018-09-11T03:53:50.784Z,90.80
2018-09-11T03:56:19.858Z,90.70
2018-09-11T03:58:48.926Z,90.60
2018-09-11T04:01:18.034Z,90.70
2018-09-11T04:03:50.115Z,90.70
2018-09-11T04:06:19.157Z,90.60
2018-09-11T04:08:48.229Z,90.50
2018-09-11T04:11:17.284Z,90.80
2018-09-11T04:13:46.323Z,90.60
2018-09-11T04:16:15.516Z,90.80
2018-09-11T04:18:44.576Z,90.80
2018-09-11T04:21:13.652Z,90.80
2018-09-11T04:23:43.036Z,90.90
2018-09-11T04:26:12.068Z,91.10
2018-09-11T04:28:41.176Z,90.90
2018-09-11T04:31:10.243Z,90.90
2018-09-11T04:33:39.321Z,91.20
2018-09-11T04:36:08.459Z,91.10
2018-09-11T04:38:37.434Z,91.40
2018-09-11T04:41:06.497Z,91.50
2018-09-11T04:43:35.517Z,91.40
2018-09-11T04:46:04.513Z,91.60
2018-09-11T04:48:33.596Z,91.80
2018-09-11T04:51:02.612Z,91.90
2018-09-11T04:53:31.660Z,92.00
2018-09-11T04:56:07.478Z,92.00
2018-09-11T04:58:36.779Z,91.90
2018-09-11T05:01:05.880Z,91.90
2018-09-11T05:03:35.665Z,91.80
2018-09-11T05:06:04.708Z,92.00
2018-09-11T05:08:34.128Z,92.00
2018-09-11T05:11:03.184Z,91.80
2018-09-11T05:13:32.180Z,91.80
2018-09-11T05:16:01.224Z,91.70
2018-09-11T05:18:30.264Z,91.40
2018-09-11T05:20:59.699Z,91.20
2018-09-11T05:23:28.727Z,91.30
2018-09-11T05:25:57.833Z,91.30
2018-09-11T05:28:26.845Z,91.10
2018-09-11T05:30:55.881Z,91.10
2018-09-11T05:33:24.973Z,91.10
2018-09-11T05:35:54.341Z,90.80
2018-09-11T05:38:23.399Z,90.90
2018-09-11T05:40:52.393Z,90.70
2018-09-11T05:43:21.524Z,90.90
2018-09-11T05:45:50.701Z,90.70
2018-09-11T05:48:19.890Z,90.60
2018-09-11T05:50:48.896Z,90.40
2018-09-11T05:53:17.936Z,90.50
2018-09-11T05:55:46.941Z,90.60
2018-09-11T05:58:15.984Z,90.60
2018-09-11T06:00:45.412Z,90.50
2018-09-11T06:03:14.741Z,90.50
2018-09-11T06:05:43.780Z,90.20
2018-09-11T06:08:12.765Z,90.60
2018-09-11T06:10:41.813Z,90.50
2018-09-11T06:13:10.805Z,90.00
2018-09-11T06:15:39.947Z,89.70
2018-09-11T06:18:08.955Z,90.00
2018-09-11T06:20:37.993Z,89.80
2018-09-11T06:23:07.011Z,89.00
2018-09-11T06:25:36.104Z,88.50
2018-09-11T06:28:05.104Z,88.40
2018-09-11T06:30:34.172Z,87.80
2018-09-11T06:33:03.181Z,87.40
2018-09-11T06:35:32.317Z,88.10
2018-09-11T06:38:01.324Z,87.20
2018-09-11T06:40:30.364Z,87.20
2018-09-11T06:42:59.599Z,87.40
2018-09-11T06:45:28.684Z,87.90
2018-09-11T06:47:57.698Z,87.80
2018-09-11T06:50:26.780Z,87.10
2018-09-11T06:52:55.842Z,86.60
2018-09-11T06:55:24.948Z,86.60
2018-09-11T06:57:54.126Z,86.30
2018-09-11T07:00:23.216Z,85.40
2018-09-11T07:02:52.225Z,85.40
2018-09-11T07:05:21.306Z,85.00
2018-09-11T07:07:50.552Z,84.30
2018-09-11T07:10:19.659Z,83.80
2018-09-11T07:12:48.908Z,83.10
2018-09-11T07:15:18.082Z,82.50
2018-09-11T07:17:47.113Z,81.30
2018-09-11T07:20:16.485Z,78.90
2018-09-11T07:22:45.236Z,74.00
2018-09-11T07:25:14.288Z,67.60
2018-09-11T07:27:43.417Z,64.10
2018-09-11T07:30:12.408Z,63.10
2018-09-11T07:32:41.434Z,62.40
2018-09-11T07:35:10.464Z,61.70
2018-09-11T07:37:39.518Z,59.00
2018-09-11T07:40:09.053Z,56.10
2018-09-11T07:42:38.127Z,56.70
2018-09-11T07:45:07.190Z,55.30
2018-09-11T07:47:36.794Z,55.60
2018-09-11T07:50:06.373Z,57.10
2018-09-11T07:52:35.420Z,57.10
2018-09-11T07:55:04.621Z,58.40
2018-09-11T07:57:33.711Z,58.20
2018-09-11T08:00:02.748Z,58.80
2018-09-11T08:02:31.765Z,58.90
2018-09-11T08:05:01.127Z,59.60
2018-09-11T08:07:30.092Z,61.00
2018-09-11T08:09:59.113Z,60.30
2018-09-11T08:12:28.157Z,59.80
2018-09-11T08:14:57.244Z,58.00
2018-09-11T08:17:26.348Z,55.40
2018-09-11T08:19:55.654Z,51.00
2018-09-11T08:22:24.790Z,49.80
2018-09-11T08:24:53.797Z,50.10
2018-09-11T08:27:22.783Z,50.70
2018-09-11T08:29:51.838Z,50.90
2018-09-11T08:32:20.868Z,52.20
2018-09-11T08:34:50.168Z,51.30
2018-09-11T08:37:19.181Z,50.60
2018-09-11T08:39:48.186Z,49.30
2018-09-11T08:42:17.263Z,47.80
2018-09-11T08:44:46.280Z,46.10
2018-09-11T08:47:15.288Z,45.80
2018-09-11T08:49:44.352Z,44.70
2018-09-11T08:52:13.423Z,45.00
2018-09-11T08:54:42.436Z,45.20
2018-09-11T08:57:11.412Z,44.60
2018-09-11T08:59:40.448Z,44.40
2018-09-11T09:02:10.393Z,44.40
2018-09-11T09:04:39.447Z,44.20
2018-09-11T09:07:08.508Z,43.50
2018-09-11T09:09:37.547Z,44.50
2018-09-11T09:12:06.580Z,45.10
2018-09-11T09:14:35.686Z,45.90
2018-09-11T09:17:04.704Z,45.70
2018-09-11T09:19:33.723Z,44.80
2018-09-11T09:22:02.708Z,45.50
2018-09-11T09:24:31.752Z,44.60
2018-09-11T09:27:00.803Z,43.80
2018-09-11T09:29:30.077Z,43.30
2018-09-11T09:31:59.092Z,43.20
2018-09-11T09:34:28.068Z,42.80
2018-09-11T09:36:57.443Z,43.20
2018-09-11T09:39:26.480Z,43.00
2018-09-11T09:41:55.545Z,41.90
2018-09-11T09:44:24.662Z,40.60
2018-09-11T09:46:53.738Z,42.10
2018-09-11T09:49:22.774Z,43.30
2018-09-11T09:51:51.786Z,42.90
2018-09-11T09:54:21.742Z,43.10
2018-09-11T09:56:50.748Z,40.60
2018-09-11T09:59:19.757Z,40.50
2018-09-11T10:01:54.057Z,40.40
2018-09-11T10:04:23.024Z,40.00
2018-09-11T10:06:52.084Z,39.30
2018-09-11T10:09:21.116Z,40.70
2018-09-11T10:11:50.197Z,40.20
2018-09-11T10:14:19.188Z,40.70
2018-09-11T10:16:48.196Z,40.40
2018-09-11T10:19:17.180Z,39.40
2018-09-11T10:21:46.220Z,40.20
2018-09-11T10:24:15.212Z,39.20
2018-09-11T10:26:44.217Z,38.70
2018-09-11T10:29:13.201Z,40.40
2018-09-11T10:31:42.236Z,39.90
2018-09-11T10:34:11.313Z,40.10
2018-09-11T10:36:40.369Z,40.10
2018-09-11T10:39:09.775Z,39.10
2018-09-11T10:41:38.784Z,38.70
2018-09-11T10:44:07.810Z,39.00
2018-09-11T10:46:36.823Z,40.60
2018-09-11T10:49:06.196Z,40.30
2018-09-11T10:51:35.228Z,41.70
2018-09-11T10:54:04.276Z,41.10
2018-09-11T10:56:33.363Z,40.60
2018-09-11T10:59:02.368Z,40.70
2018-09-11T11:01:31.407Z,41.00
2018-09-11T11:04:00.610Z,40.00
2018-09-11T11:06:29.650Z,39.90
2018-09-11T11:08:58.624Z,39.90
2018-09-11T11:11:27.649Z,39.90
2018-09-11T11:13:56.647Z,38.60
2018-09-11T11:16:25.677Z,37.40
2018-09-11T11:18:54.750Z,38.00
2018-09-11T11:21:23.752Z,37.80
2018-09-11T11:23:52.764Z,36.60
2018-09-11T11:26:21.784Z,38.70
2018-09-11T11:28:50.880Z,40.50
2018-09-11T11:31:19.944Z,40.00
2018-09-11T11:33:48.920Z,38.50
2018-09-11T11:36:18.012Z,38.60
2018-09-11T11:38:46.973Z,38.40
2018-09-11T11:41:16.005Z,38.10
2018-09-11T11:43:45.021Z,38.60
2018-09-11T11:46:14.070Z,39.20
2018-09-11T11:48:43.063Z,38.10
2018-09-11T11:51:12.114Z,37.60
2018-09-11T11:53:41.121Z,39.30
2018-09-11T11:56:10.097Z,37.90
2018-09-11T11:58:39.144Z,38.50
2018-09-11T12:01:08.272Z,38.20
2018-09-11T12:03:37.281Z,37.70
2018-09-11T12:06:06.542Z,37.80
2018-09-11T12:08:35.784Z,38.70
2018-09-11T12:11:04.924Z,38.10
2018-09-11T12:13:33.904Z,38.10
2018-09-11T12:16:03.046Z,38.40
2018-09-11T12:18:32.345Z,37.30
2018-09-11T12:21:01.376Z,37.70
2018-09-11T12:23:30.432Z,37.80
2018-09-11T12:25:59.408Z,37.70
2018-09-11T12:28:28.432Z,37.60
2018-09-11T12:30:57.451Z,37.50
2018-09-11T12:33:26.504Z,38.10
2018-09-11T12:35:55.525Z,37.70
2018-09-11T12:38:24.557Z,37.40
2018-09-11T12:40:53.573Z,36.70
2018-09-11T12:43:22.604Z,36.20
2018-09-11T12:45:51.779Z,36.50
2018-09-11T12:48:21.102Z,37.50
2018-09-11T12:50:49.837Z,37.00
2018-09-11T12:53:18.822Z,36.60
2018-09-11T12:55:47.864Z,36.80
2018-09-11T12:58:16.898Z,36.20
2018-09-11T13:00:45.964Z,36.20
2018-09-11T13:03:14.983Z,36.40
2018-09-11T13:05:44.015Z,36.20
2018-09-11T13:08:13.142Z,36.50
2018-09-11T13:10:42.172Z,36.90
2018-09-11T13:13:11.234Z,35.70
2018-09-11T13:15:40.310Z,35.40
2018-09-11T13:18:09.419Z,35.40
2018-09-11T13:20:38.385Z,35.40
2018-09-11T13:23:07.433Z,34.90
2018-09-11T13:25:36.439Z,35.00
2018-09-11T13:28:05.724Z,35.10
2018-09-11T13:30:34.741Z,34.40
2018-09-11T13:33:03.745Z,33.50
2018-09-11T13:35:32.778Z,34.60
2018-09-11T13:38:01.797Z,34.20
2018-09-11T13:40:31.961Z,34.50
2018-09-11T13:43:01.122Z,34.30
2018-09-11T13:45:30.180Z,34.60
2018-09-11T13:47:59.336Z,34.50
2018-09-11T13:50:28.346Z,34.70
2018-09-11T13:52:57.364Z,35.10
2018-09-11T13:55:26.403Z,35.20
2018-09-11T13:57:55.400Z,35.10
2018-09-11T14:00:24.505Z,36.00
2018-09-11T14:02:53.585Z,35.00
2018-09-11T14:05:22.635Z,35.60
2018-09-11T14:07:51.762Z,35.30
2018-09-11T14:10:20.809Z,34.40
2018-09-11T14:12:49.801Z,34.30
2018-09-11T14:15:18.829Z,34.70
2018-09-11T14:17:47.825Z,34.70
2018-09-11T14:20:16.856Z,34.60
2018-09-11T14:22:45.849Z,35.50
2018-09-11T14:25:14.887Z,35.70
2018-09-11T14:27:43.893Z,35.80
2018-09-11T14:30:12.903Z,34.90
2018-09-11T14:32:41.983Z,35.20
2018-09-11T14:35:10.974Z,33.80
2018-09-11T14:37:39.989Z,34.30
2018-09-11T14:40:08.999Z,34.60
2018-09-11T14:42:38.001Z,35.40
2018-09-11T14:45:07.337Z,35.00
2018-09-11T14:47:42.991Z,35.20
2018-09-11T14:50:13.361Z,35.60
2018-09-11T14:52:42.523Z,33.80
2018-09-11T14:55:11.935Z,33.70
2018-09-11T14:57:40.957Z,33.70
2018-09-11T15:00:10.073Z,33.50
2018-09-11T15:02:39.032Z,34.20
2018-09-11T15:05:08.172Z,35.50
2018-09-11T15:07:37.170Z,35.40
2018-09-11T15:10:06.207Z,35.70
2018-09-11T15:12:35.291Z,36.30
2018-09-11T15:15:04.417Z,36.40
2018-09-11T15:17:33.410Z,36.30
2018-09-11T15:20:02.480Z,36.20
2018-09-11T15:22:31.505Z,35.50
2018-09-11T15:25:00.470Z,36.30
2018-09-11T15:27:29.521Z,36.00
2018-09-11T15:29:58.615Z,36.00
2018-09-11T15:32:27.592Z,36.20
2018-09-11T15:34:56.661Z,35.10
2018-09-11T15:37:25.690Z,35.80
2018-09-11T15:39:54.712Z,35.60
2018-09-11T15:42:24.716Z,36.40
2018-09-11T15:44:53.814Z,37.00
2018-09-11T15:47:22.925Z,36.30
2018-09-11T15:49:51.990Z,35.70
2018-09-11T15:52:21.025Z,36.50
2018-09-11T15:54:49.991Z,35.40
2018-09-11T15:57:19.049Z,34.20
2018-09-11T15:59:54.739Z,34.40
2018-09-11T16:02:24.080Z,35.20
2018-09-11T16:04:53.111Z,36.40
2018-09-11T16:07:22.140Z,37.10
2018-09-11T16:09:51.201Z,37.10
2018-09-11T16:12:20.168Z,37.60
2018-09-11T16:14:49.193Z,37.50
2018-09-11T16:17:18.184Z,38.00
2018-09-11T16:19:47.492Z,38.00
2018-09-11T16:22:16.562Z,38.00
2018-09-11T16:24:45.633Z,38.80
2018-09-11T16:27:14.669Z,39.30
2018-09-11T16:29:43.665Z,39.50
2018-09-11T16:32:12.689Z,39.60
2018-09-11T16:34:41.695Z,39.60
2018-09-11T16:37:10.716Z,40.00
2018-09-11T16:39:39.756Z,40.10
2018-09-11T16:42:08.785Z,39.80
2018-09-11T16:44:38.054Z,40.10
2018-09-11T16:47:07.173Z,40.70
2018-09-11T16:49:36.157Z,41.10
2018-09-11T16:52:05.228Z,40.80
2018-09-11T16:54:34.220Z,41.20
2018-09-11T16:57:03.265Z,41.70
2018-09-11T16:59:33.025Z,42.30
2018-09-11T17:02:02.105Z,42.60
2018-09-11T17:04:31.243Z,41.90
2018-09-11T17:07:00.351Z,41.10
2018-09-11T17:09:29.361Z,41.30
2018-09-11T17:11:58.598Z,41.30
2018-09-11T17:14:27.679Z,41.60
2018-09-11T17:16:56.643Z,41.60
2018-09-11T17:19:25.645Z,42.00
2018-09-11T17:21:54.803Z,42.10
2018-09-11T17:24:23.836Z,42.30
2018-09-11T17:26:52.900Z,43.00
2018-09-11T17:29:21.910Z,43.50
2018-09-11T17:31:51.033Z,44.00
2018-09-11T17:34:20.086Z,43.80
2018-09-11T17:36:49.113Z,44.20
2018-09-11T17:39:18.104Z,44.40
2018-09-11T17:41:47.141Z,45.00
2018-09-11T17:44:16.136Z,45.30
2018-09-11T17:46:45.213Z,46.00
2018-09-11T17:49:14.302Z,46.50
2018-09-11T17:51:43.261Z,47.10
2018-09-11T17:54:12.316Z,47.40
2018-09-11T17:56:41.376Z,47.80
2018-09-11T17:59:10.702Z,48.10
2018-09-11T18:01:39.722Z,49.20
2018-09-11T18:04:08.701Z,49.00
2018-09-11T18:06:37.712Z,49.50
2018-09-11T18:09:07.766Z,49.80
2018-09-11T18:11:36.785Z,50.10
2018-09-11T18:14:05.780Z,50.70
2018-09-11T18:16:34.801Z,50.90
2018-09-11T18:19:03.832Z,51.30
2018-09-11T18:21:33.003Z,51.70
2018-09-11T18:24:01.996Z,52.20
2018-09-11T18:26:31.031Z,52.60
2018-09-11T18:29:00.328Z,52.70
2018-09-11T18:31:29.285Z,53.20
2018-09-11T18:33:58.445Z,53.10
2018-09-11T18:36:27.636Z,53.60
2018-09-11T18:38:56.624Z,54.00
2018-09-11T18:41:25.632Z,54.40
2018-09-11T18:43:54.870Z,54.80
2018-09-11T18:46:23.990Z,54.70
2018-09-11T18:48:53.009Z,54.90
2018-09-11T18:51:22.163Z,55.00
2018-09-11T18:53:51.100Z,55.30
2018-09-11T18:56:20.305Z,55.50
2018-09-11T18:58:49.329Z,55.80
2018-09-11T19:01:18.358Z,56.00
2018-09-11T19:03:47.384Z,56.20
2018-09-11T19:06:16.390Z,56.30
2018-09-11T19:08:45.476Z,56.70
2018-09-11T19:11:14.491Z,56.80
2018-09-11T19:13:43.504Z,57.00
2018-09-11T19:16:13.188Z,57.50
2018-09-11T19:18:42.288Z,58.00
2018-09-11T19:21:11.316Z,58.60
2018-09-11T19:23:40.409Z,58.30
2018-09-11T19:26:09.594Z,58.80
2018-09-11T19:28:38.607Z,59.40
2018-09-11T19:31:07.689Z,59.10
2018-09-11T19:33:36.749Z,59.60
2018-09-11T19:36:06.052Z,59.50
2018-09-11T19:38:35.122Z,59.80
2018-09-11T19:41:04.179Z,60.00
2018-09-11T19:43:33.181Z,60.30
2018-09-11T19:46:02.285Z,60.40
2018-09-11T19:48:31.273Z,60.70
2018-09-11T19:51:00.401Z,61.30
2018-09-11T19:53:29.384Z,61.90
2018-09-11T19:55:58.448Z,62.20
2018-09-11T19:58:27.697Z,62.50
2018-09-11T20:00:56.736Z,62.80
2018-09-11T20:03:25.764Z,62.70
2018-09-11T20:05:54.962Z,63.50
2018-09-11T20:08:24.046Z,63.10
2018-09-11T20:10:53.109Z,63.40
2018-09-11T20:13:22.121Z,63.50
2018-09-11T20:15:51.190Z,63.90
2018-09-11T20:18:20.303Z,64.20
2018-09-11T20:20:49.767Z,64.50
2018-09-11T20:23:18.789Z,64.50
2018-09-11T20:25:47.897Z,64.90
2018-09-11T20:28:16.880Z,65.30
2018-09-11T20:30:45.885Z,65.30
2018-09-11T20:33:14.956Z,65.30
2018-09-11T20:35:43.986Z,65.80
2018-09-11T20:38:13.055Z,65.90
2018-09-11T20:40:42.058Z,65.80
2018-09-11T20:43:11.128Z,65.90
2018-09-11T20:45:40.190Z,65.90
2018-09-11T20:48:09.300Z,66.30
2018-09-11T20:50:38.666Z,66.40
2018-09-11T20:53:07.724Z,66.70
2018-09-11T20:55:36.830Z,66.90
2018-09-11T20:58:05.840Z,67.00
2018-09-11T21:00:34.832Z,67.30
2018-09-11T21:03:03.897Z,67.50
2018-09-11T21:05:32.928Z,67.80
2018-09-11T21:08:01.924Z,68.10
2018-09-11T21:10:30.938Z,68.40
2018-09-11T21:12:59.959Z,68.30
2018-09-11T21:15:28.958Z,68.40
2018-09-11T21:17:57.958Z,68.40
2018-09-11T21:20:27.055Z,68.40
2018-09-11T21:22:56.094Z,68.50
2018-09-11T21:25:25.265Z,68.90
2018-09-11T21:27:54.422Z,69.30
2018-09-11T21:30:23.557Z,69.60
2018-09-11T21:32:52.664Z,69.60
2018-09-11T21:35:21.699Z,69.70
2018-09-11T21:37:50.770Z,70.00
2018-09-11T21:40:19.873Z,70.30
2018-09-11T21:42:48.885Z,70.10
2018-09-11T21:45:17.902Z,70.30
2018-09-11T21:47:46.948Z,70.40
2018-09-11T21:50:15.946Z,70.30
2018-09-11T21:52:45.000Z,70.50
2018-09-11T21:55:14.111Z,71.30
2018-09-11T21:57:43.387Z,70.60
2018-09-11T22:00:13.382Z,70.80
2018-09-11T22:02:42.358Z,70.80
2018-09-11T22:05:11.674Z,71.10
2018-09-11T22:07:40.680Z,71.20
2018-09-11T22:10:10.954Z,71.30
2018-09-11T22:12:40.220Z,71.50
2018-09-11T22:15:10.470Z,71.80
2018-09-11T22:17:39.544Z,71.70
2018-09-11T22:20:08.642Z,71.70
2018-09-11T22:22:37.993Z,71.70
2018-09-11T22:25:07.005Z,71.50
2018-09-11T22:27:36.023Z,71.40
2018-09-11T22:30:05.272Z,71.70
2018-09-11T22:32:34.262Z,71.80
2018-09-11T22:35:03.313Z,71.80
2018-09-11T22:37:32.307Z,71.90
2018-09-11T22:40:01.284Z,72.40
2018-09-11T22:42:30.329Z,72.20
2018-09-11T22:44:59.462Z,72.70
2018-09-11T22:47:28.448Z,72.90
2018-09-11T22:49:57.461Z,73.20
2018-09-11T22:52:26.500Z,73.40
2018-09-11T22:54:55.558Z,73.80
2018-09-11T22:57:24.616Z,73.90
2018-09-11T22:59:54.002Z,73.90
2018-09-11T23:02:23.003Z,73.80
2018-09-11T23:04:52.039Z,73.80
2018-09-11T23:07:21.433Z,74.00
2018-09-11T23:09:50.461Z,74.00
2018-09-11T23:12:19.564Z,74.90
2018-09-11T23:14:48.590Z,74.40
2018-09-11T23:17:17.624Z,74.70
2018-09-11T23:19:46.661Z,75.00
2018-09-11T23:22:15.685Z,75.20
2018-09-11T23:24:44.724Z,75.70
2018-09-11T23:27:13.792Z,75.90
2018-09-11T23:29:42.819Z,76.00
2018-09-11T23:32:11.917Z,76.20
2018-09-11T23:34:40.939Z,76.20
2018-09-11T23:37:10.032Z,76.30
2018-09-11T23:39:39.068Z,76.80
2018-09-11T23:42:08.051Z,77.00
2018-09-11T23:44:37.120Z,77.30
2018-09-11T23:47:06.122Z,77.80
2018-09-11T23:49:35.121Z,78.60
2018-09-11T23:52:04.274Z,79.20
2018-09-11T23:54:33.287Z,79.20
2018-09-11T23:57:02.326Z,79.70
2018-09-11T23:59:31.340Z,79.80
